sensor_id;sensor_type;location;lat;lon;timestamp;pressure;altitude;pressure_sealevel;temperature;humidity
56330;BME280;42236;48.058;10.632;2022-09-28T00:00:39;93270.81;;;8.30;94.25
56330;BME280;42236;48.058;10.632;2022-09-28T00:03:07;93272.34;;;8.31;94.47
56330;BME280;42236;48.058;10.632;2022-09-28T00:05:33;93278.13;;;8.33;94.54
56330;BME280;42236;48.058;10.632;2022-09-28T00:07:59;93277.03;;;8.34;94.64
56330;BME280;42236;48.058;10.632;2022-09-28T00:10:25;93281.25;;;8.35;94.60
56330;BME280;42236;48.058;10.632;2022-09-28T00:12:51;93278.13;;;8.33;94.16
56330;BME280;42236;48.058;10.632;2022-09-28T00:15:19;93277.03;;;8.34;94.30
56330;BME280;42236;48.058;10.632;2022-09-28T00:17:50;93270.06;;;8.33;93.97
56330;BME280;42236;48.058;10.632;2022-09-28T00:20:16;93273.19;;;8.35;93.75
56330;BME280;42236;48.058;10.632;2022-09-28T00:22:42;93267.81;;;8.35;93.62
56330;BME280;42236;48.058;10.632;2022-09-28T00:25:08;93254.72;;;8.33;93.70
56330;BME280;42236;48.058;10.632;2022-09-28T00:27:33;93255.53;;;8.34;93.39
56330;BME280;42236;48.058;10.632;2022-09-28T00:29:58;93250.91;;;8.34;93.18
56330;BME280;42236;48.058;10.632;2022-09-28T00:32:24;93241.72;;;8.36;93.24
56330;BME280;42236;48.058;10.632;2022-09-28T00:34:51;93227.50;;;8.35;93.04
56330;BME280;42236;48.058;10.632;2022-09-28T00:37:18;93224.41;;;8.33;92.63
56330;BME280;42236;48.058;10.632;2022-09-28T00:39:44;93226.31;;;8.32;92.70
56330;BME280;42236;48.058;10.632;2022-09-28T00:42:22;93208.59;;;8.28;92.69
56330;BME280;42236;48.058;10.632;2022-09-28T00:44:49;93213.97;;;8.28;92.50
56330;BME280;42236;48.058;10.632;2022-09-28T00:50:26;93211.69;;;8.30;92.50
56330;BME280;42236;48.058;10.632;2022-09-28T00:55:24;93203.69;;;8.33;92.31
56330;BME280;42236;48.058;10.632;2022-09-28T00:58:00;93201.78;;;8.34;92.15
56330;BME280;42236;48.058;10.632;2022-09-28T01:00:30;93197.19;;;8.34;92.02
56330;BME280;42236;48.058;10.632;2022-09-28T01:02:56;93193.34;;;8.36;91.80
56330;BME280;42236;48.058;10.632;2022-09-28T01:05:23;93172.22;;;8.34;91.74
56330;BME280;42236;48.058;10.632;2022-09-28T01:07:49;93174.91;;;8.34;91.55
56330;BME280;42236;48.058;10.632;2022-09-28T01:10:15;93176.03;;;8.33;90.99
56330;BME280;42236;48.058;10.632;2022-09-28T01:12:49;93158.72;;;8.30;91.12
56330;BME280;42236;48.058;10.632;2022-09-28T01:15:15;93154.94;;;8.31;90.97
56330;BME280;42236;48.058;10.632;2022-09-28T01:17:56;93146.06;;;8.31;90.64
56330;BME280;42236;48.058;10.632;2022-09-28T01:20:53;93136.06;;;8.28;90.63
56330;BME280;42236;48.058;10.632;2022-09-28T01:23:36;93132.19;;;8.25;90.81
56330;BME280;42236;48.058;10.632;2022-09-28T01:26:27;93128.72;;;8.25;90.40
56330;BME280;42236;48.058;10.632;2022-09-28T01:29:08;93121.78;;;8.24;90.54
56330;BME280;42236;48.058;10.632;2022-09-28T01:31:36;93120.59;;;8.21;90.28
56330;BME280;42236;48.058;10.632;2022-09-28T01:34:30;93113.72;;;8.24;90.40
56330;BME280;42236;48.058;10.632;2022-09-28T01:37:10;93115.66;;;8.23;90.22
56330;BME280;42236;48.058;10.632;2022-09-28T01:39:41;93099.09;;;8.21;90.28
56330;BME280;42236;48.058;10.632;2022-09-28T01:42:25;93087.25;;;8.22;90.14
56330;BME280;42236;48.058;10.632;2022-09-28T01:44:55;93077.25;;;8.23;90.08
56330;BME280;42236;48.058;10.632;2022-09-28T01:47:26;93074.94;;;8.21;89.75
56330;BME280;42236;48.058;10.632;2022-09-28T01:50:01;93071.47;;;8.21;89.82
56330;BME280;42236;48.058;10.632;2022-09-28T01:52:30;93067.28;;;8.23;89.68
56330;BME280;42236;48.058;10.632;2022-09-28T01:55:17;93060.38;;;8.22;89.32
56330;BME280;42236;48.058;10.632;2022-09-28T02:00:28;93045.09;;;8.26;89.32
56330;BME280;42236;48.058;10.632;2022-09-28T02:05:58;93049.66;;;8.26;88.88
56330;BME280;42236;48.058;10.632;2022-09-28T02:08:34;93046.56;;;8.24;88.79
56330;BME280;42236;48.058;10.632;2022-09-28T02:11:13;93038.91;;;8.26;88.80
56330;BME280;42236;48.058;10.632;2022-09-28T02:13:42;93030.09;;;8.25;88.78
56330;BME280;42236;48.058;10.632;2022-09-28T02:18:54;93022.03;;;8.25;88.31
56330;BME280;42236;48.058;10.632;2022-09-28T02:21:25;93010.53;;;8.25;88.19
56330;BME280;42236;48.058;10.632;2022-09-28T02:24:00;93017.44;;;8.26;88.36
56330;BME280;42236;48.058;10.632;2022-09-28T02:26:30;93005.16;;;8.25;88.41
56330;BME280;42236;48.058;10.632;2022-09-28T02:29:00;92997.44;;;8.23;88.40
56330;BME280;42236;48.058;10.632;2022-09-28T02:31:26;92998.94;;;8.21;88.33
56330;BME280;42236;48.058;10.632;2022-09-28T02:33:52;92994.31;;;8.18;88.22
56330;BME280;42236;48.058;10.632;2022-09-28T02:36:19;92994.31;;;8.18;88.25
56330;BME280;42236;48.058;10.632;2022-09-28T02:38:44;92998.16;;;8.17;88.33
56330;BME280;42236;48.058;10.632;2022-09-28T02:41:43;93006.91;;;8.13;88.34
56330;BME280;42236;48.058;10.632;2022-09-28T02:44:27;93006.50;;;8.11;88.34
56330;BME280;42236;48.058;10.632;2022-09-28T02:50:02;92994.16;;;8.07;88.77
56330;BME280;42236;48.058;10.632;2022-09-28T02:55:23;92998.69;;;7.99;89.13
56330;BME280;42236;48.058;10.632;2022-09-28T03:00:43;92981.03;;;7.98;89.06
56330;BME280;42236;48.058;10.632;2022-09-28T03:03:20;92981.03;;;7.98;89.35
56330;BME280;42236;48.058;10.632;2022-09-28T03:08:44;92964.19;;;8.01;88.92
56330;BME280;42236;48.058;10.632;2022-09-28T03:11:25;92968.81;;;8.04;89.00
56330;BME280;42236;48.058;10.632;2022-09-28T03:13:55;92959.63;;;8.05;89.09
56330;BME280;42236;48.058;10.632;2022-09-28T03:16:20;92953.88;;;8.07;88.83
56330;BME280;42236;48.058;10.632;2022-09-28T03:18:46;92960.47;;;8.09;88.56
56330;BME280;42236;48.058;10.632;2022-09-28T03:21:13;92961.22;;;8.10;88.42
56330;BME280;42236;48.058;10.632;2022-09-28T03:23:39;92954.72;;;8.11;88.56
56330;BME280;42236;48.058;10.632;2022-09-28T03:28:54;92955.19;;;8.17;88.18
56330;BME280;42236;48.058;10.632;2022-09-28T03:31:19;92954.44;;;8.20;88.12
56330;BME280;42236;48.058;10.632;2022-09-28T03:33:44;92958.31;;;8.22;87.97
56330;BME280;42236;48.058;10.632;2022-09-28T03:36:10;92956.38;;;8.23;88.17
56330;BME280;42236;48.058;10.632;2022-09-28T03:38:36;92956.03;;;8.24;87.85
56330;BME280;42236;48.058;10.632;2022-09-28T03:41:01;92954.53;;;8.27;87.90
56330;BME280;42236;48.058;10.632;2022-09-28T03:43:27;92951.44;;;8.28;88.04
56330;BME280;42236;48.058;10.632;2022-09-28T03:45:55;92938.44;;;8.30;88.06
56330;BME280;42236;48.058;10.632;2022-09-28T03:48:22;92940.75;;;8.32;87.88
56330;BME280;42236;48.058;10.632;2022-09-28T03:50:51;92934.22;;;8.33;88.57
56330;BME280;42236;48.058;10.632;2022-09-28T03:53:17;92929.69;;;8.37;87.96
56330;BME280;42236;48.058;10.632;2022-09-28T03:55:42;92933.13;;;8.38;88.20
56330;BME280;42236;48.058;10.632;2022-09-28T03:58:08;92925.06;;;8.38;88.47
56330;BME280;42236;48.058;10.632;2022-09-28T04:00:33;92923.16;;;8.38;88.77
56330;BME280;42236;48.058;10.632;2022-09-28T04:02:58;92923.16;;;8.38;88.65
56330;BME280;42236;48.058;10.632;2022-09-28T04:05:24;92917.78;;;8.38;88.58
56330;BME280;42236;48.058;10.632;2022-09-28T04:07:49;92918.94;;;8.37;89.04
56330;BME280;42236;48.058;10.632;2022-09-28T04:10:14;92925.50;;;8.40;88.65
56330;BME280;42236;48.058;10.632;2022-09-28T04:12:40;92920.91;;;8.40;88.54
56330;BME280;42236;48.058;10.632;2022-09-28T04:15:14;92920.91;;;8.40;88.51
56330;BME280;42236;48.058;10.632;2022-09-28T04:17:40;92922.38;;;8.38;89.05
56330;BME280;42236;48.058;10.632;2022-09-28T04:20:05;92915.88;;;8.39;89.14
56330;BME280;42236;48.058;10.632;2022-09-28T04:22:31;92911.28;;;8.39;89.21
56330;BME280;42236;48.058;10.632;2022-09-28T04:24:57;92914.75;;;8.40;89.10
56330;BME280;42236;48.058;10.632;2022-09-28T04:27:22;92906.34;;;8.41;89.30
56330;BME280;42236;48.058;10.632;2022-09-28T04:30:07;92894.03;;;8.40;89.63
56330;BME280;42236;48.058;10.632;2022-09-28T04:32:32;92889.44;;;8.41;89.79
56330;BME280;42236;48.058;10.632;2022-09-28T04:34:58;92877.91;;;8.40;90.16
56330;BME280;42236;48.058;10.632;2022-09-28T04:37:23;92884.06;;;8.41;89.75
56330;BME280;42236;48.058;10.632;2022-09-28T04:39:48;92881.78;;;8.43;89.96
56330;BME280;42236;48.058;10.632;2022-09-28T04:42:14;92874.09;;;8.41;90.21
56330;BME280;42236;48.058;10.632;2022-09-28T04:44:40;92864.88;;;8.42;90.34
56330;BME280;42236;48.058;10.632;2022-09-28T04:47:05;92870.25;;;8.42;90.29
56330;BME280;42236;48.058;10.632;2022-09-28T04:49:30;92870.25;;;8.42;90.32
56330;BME280;42236;48.058;10.632;2022-09-28T04:51:56;92867.97;;;8.44;90.20
56330;BME280;42236;48.058;10.632;2022-09-28T04:54:21;92862.59;;;8.44;90.29
56330;BME280;42236;48.058;10.632;2022-09-28T04:56:46;92861.06;;;8.43;90.43
56330;BME280;42236;48.058;10.632;2022-09-28T04:59:11;92859.50;;;8.42;90.55
56330;BME280;42236;48.058;10.632;2022-09-28T05:01:37;92863.34;;;8.41;90.59
56330;BME280;42236;48.058;10.632;2022-09-28T05:04:02;92861.03;;;8.40;90.73
56330;BME280;42236;48.058;10.632;2022-09-28T05:06:28;92861.78;;;8.40;90.76
56330;BME280;42236;48.058;10.632;2022-09-28T05:08:54;92856.38;;;8.37;91.04
56330;BME280;42236;48.058;10.632;2022-09-28T05:11:21;92853.28;;;8.38;91.09
56330;BME280;42236;48.058;10.632;2022-09-28T05:13:47;92847.91;;;8.34;91.47
56330;BME280;42236;48.058;10.632;2022-09-28T05:16:15;92848.66;;;8.35;91.16
56330;BME280;42236;48.058;10.632;2022-09-28T05:18:41;92847.13;;;8.34;91.64
56330;BME280;42236;48.058;10.632;2022-09-28T05:21:11;92832.91;;;8.33;91.73
56330;BME280;42236;48.058;10.632;2022-09-28T05:23:38;92831.00;;;8.34;91.27
56330;BME280;42236;48.058;10.632;2022-09-28T05:26:03;92831.00;;;8.34;91.35
56330;BME280;42236;48.058;10.632;2022-09-28T05:28:30;92831.00;;;8.34;91.10
56330;BME280;42236;48.058;10.632;2022-09-28T05:31:03;92836.38;;;8.34;91.00
56330;BME280;42236;48.058;10.632;2022-09-28T05:33:30;92834.09;;;8.36;90.82
56330;BME280;42236;48.058;10.632;2022-09-28T05:35:57;92829.50;;;8.37;90.47
56330;BME280;42236;48.058;10.632;2022-09-28T05:38:23;92828.34;;;8.38;90.58
56330;BME280;42236;48.058;10.632;2022-09-28T05:40:48;92827.22;;;8.39;90.43
56330;BME280;42236;48.058;10.632;2022-09-28T05:43:13;92838.38;;;8.41;90.34
56330;BME280;42236;48.058;10.632;2022-09-28T05:45:39;92839.16;;;8.41;89.79
56330;BME280;42236;48.058;10.632;2022-09-28T05:48:04;92839.56;;;8.43;90.45
56330;BME280;42236;48.058;10.632;2022-09-28T05:50:30;92840.34;;;8.44;90.36
56330;BME280;42236;48.058;10.632;2022-09-28T05:53:04;92841.88;;;8.45;90.58
56330;BME280;42236;48.058;10.632;2022-09-28T05:55:30;92837.25;;;8.42;90.64
56330;BME280;42236;48.058;10.632;2022-09-28T05:58:00;92844.94;;;8.43;91.23
56330;BME280;42236;48.058;10.632;2022-09-28T06:00:26;92838.78;;;8.43;90.96
56330;BME280;42236;48.058;10.632;2022-09-28T06:02:56;92841.41;;;8.39;91.46
56330;BME280;42236;48.058;10.632;2022-09-28T06:05:23;92841.00;;;8.37;91.87
56330;BME280;42236;48.058;10.632;2022-09-28T06:07:48;92842.53;;;8.38;92.11
56330;BME280;42236;48.058;10.632;2022-09-28T06:10:13;92832.91;;;8.33;92.99
56330;BME280;42236;48.058;10.632;2022-09-28T06:12:39;92837.50;;;8.33;92.85
56330;BME280;42236;48.058;10.632;2022-09-28T06:15:05;92831.72;;;8.31;93.45
56330;BME280;42236;48.058;10.632;2022-09-28T06:17:30;92822.88;;;8.27;93.66
56330;BME280;42236;48.058;10.632;2022-09-28T06:19:56;92821.31;;;8.26;93.89
56330;BME280;42236;48.058;10.632;2022-09-28T06:22:21;92821.31;;;8.26;93.90
56330;BME280;42236;48.058;10.632;2022-09-28T06:24:47;92825.56;;;8.27;93.73
56330;BME280;42236;48.058;10.632;2022-09-28T06:27:12;92834.00;;;8.25;94.17
56330;BME280;42236;48.058;10.632;2022-09-28T06:29:37;92837.44;;;8.26;94.29
56330;BME280;42236;48.058;10.632;2022-09-28T06:32:03;92845.16;;;8.27;94.02
56330;BME280;42236;48.058;10.632;2022-09-28T06:34:28;92833.25;;;8.28;94.17
56330;BME280;42236;48.058;10.632;2022-09-28T06:36:54;92828.66;;;8.29;94.87
56330;BME280;42236;48.058;10.632;2022-09-28T06:39:19;92839.06;;;8.34;93.95
56330;BME280;42236;48.058;10.632;2022-09-28T06:41:44;92837.56;;;8.37;94.27
56330;BME280;42236;48.058;10.632;2022-09-28T06:44:10;92830.25;;;8.37;94.75
56330;BME280;42236;48.058;10.632;2022-09-28T06:46:35;92844.09;;;8.39;94.60
56330;BME280;42236;48.058;10.632;2022-09-28T06:49:02;92841.41;;;8.39;94.59
56330;BME280;42236;48.058;10.632;2022-09-28T06:51:28;92846.78;;;8.39;95.09
56330;BME280;42236;48.058;10.632;2022-09-28T06:53:54;92843.38;;;8.42;94.76
56330;BME280;42236;48.058;10.632;2022-09-28T06:56:20;92857.22;;;8.44;95.05
56330;BME280;42236;48.058;10.632;2022-09-28T06:58:46;92856.81;;;8.42;95.54
56330;BME280;42236;48.058;10.632;2022-09-28T07:01:12;92857.19;;;8.41;95.77
56330;BME280;42236;48.058;10.632;2022-09-28T07:03:37;92861.78;;;8.40;95.45
56330;BME280;42236;48.058;10.632;2022-09-28T07:06:04;92860.66;;;8.41;95.89
56330;BME280;42236;48.058;10.632;2022-09-28T07:08:30;92864.53;;;8.44;95.99
56330;BME280;42236;48.058;10.632;2022-09-28T07:10:55;92871.84;;;8.47;96.41
56330;BME280;42236;48.058;10.632;2022-09-28T07:13:23;92873.06;;;8.53;95.60
56330;BME280;42236;48.058;10.632;2022-09-28T07:15:53;92864.59;;;8.54;95.80
56330;BME280;42236;48.058;10.632;2022-09-28T07:18:19;92865.00;;;8.57;96.03
56330;BME280;42236;48.058;10.632;2022-09-28T07:20:44;92867.75;;;8.64;95.73
56330;BME280;42236;48.058;10.632;2022-09-28T07:23:09;92875.84;;;8.67;96.02
56330;BME280;42236;48.058;10.632;2022-09-28T07:25:35;92871.66;;;8.70;95.50
56330;BME280;42236;48.058;10.632;2022-09-28T07:28:05;92873.59;;;8.73;95.76
56330;BME280;42236;48.058;10.632;2022-09-28T07:30:32;92872.09;;;8.75;95.63
56330;BME280;42236;48.058;10.632;2022-09-28T07:32:59;92880.16;;;8.79;95.47
56330;BME280;42236;48.058;10.632;2022-09-28T07:35:24;92885.94;;;8.81;95.61
56330;BME280;42236;48.058;10.632;2022-09-28T07:38:00;92880.63;;;8.85;95.22
56330;BME280;42236;48.058;10.632;2022-09-28T07:40:27;92886.78;;;8.89;95.29
56330;BME280;42236;48.058;10.632;2022-09-28T07:43:12;92894.47;;;8.90;95.40
56330;BME280;42236;48.058;10.632;2022-09-28T07:45:38;92891.84;;;8.94;95.50
56330;BME280;42236;48.058;10.632;2022-09-28T07:48:03;92882.25;;;8.96;95.53
56330;BME280;42236;48.058;10.632;2022-09-28T07:50:29;92898.41;;;9.00;95.27
56330;BME280;42236;48.058;10.632;2022-09-28T07:52:57;92904.53;;;9.01;95.26
56330;BME280;42236;48.058;10.632;2022-09-28T07:55:23;92908.78;;;9.02;95.29
56330;BME280;42236;48.058;10.632;2022-09-28T07:57:55;92906.88;;;9.06;96.18
56330;BME280;42236;48.058;10.632;2022-09-28T08:00:25;92910.78;;;9.12;96.10
56330;BME280;42236;48.058;10.632;2022-09-28T08:02:51;92923.47;;;9.15;95.95
56330;BME280;42236;48.058;10.632;2022-09-28T08:05:16;92938.44;;;9.12;95.98
56330;BME280;42236;48.058;10.632;2022-09-28T08:07:42;92931.56;;;9.15;95.98
56330;BME280;42236;48.058;10.632;2022-09-28T08:10:08;92935.41;;;9.17;96.25
56330;BME280;42236;48.058;10.632;2022-09-28T08:12:33;92931.59;;;9.22;96.22
56330;BME280;42236;48.058;10.632;2022-09-28T08:14:59;92935.84;;;9.23;96.07
56330;BME280;42236;48.058;10.632;2022-09-28T08:17:25;92945.47;;;9.28;96.14
56330;BME280;42236;48.058;10.632;2022-09-28T08:19:50;92946.66;;;9.30;96.61
56330;BME280;42236;48.058;10.632;2022-09-28T08:22:34;92949.75;;;9.32;96.35
56330;BME280;42236;48.058;10.632;2022-09-28T08:25:00;92956.28;;;9.35;95.91
56330;BME280;42236;48.058;10.632;2022-09-28T08:27:26;92952.81;;;9.34;96.53
56330;BME280;42236;48.058;10.632;2022-09-28T08:29:52;92939.41;;;9.38;96.47
56330;BME280;42236;48.058;10.632;2022-09-28T08:32:17;92957.84;;;9.39;97.33
56330;BME280;42236;48.058;10.632;2022-09-28T08:34:43;92958.66;;;9.44;96.75
56330;BME280;42236;48.058;10.632;2022-09-28T08:37:09;92965.25;;;9.50;96.71
56330;BME280;42236;48.058;10.632;2022-09-28T08:39:34;92967.19;;;9.53;97.18
56330;BME280;42236;48.058;10.632;2022-09-28T08:42:38;92963.75;;;9.56;96.42
56330;BME280;42236;48.058;10.632;2022-09-28T08:44:58;92969.53;;;9.61;96.64
56330;BME280;42236;48.058;10.632;2022-09-28T08:47:51;92978.78;;;9.57;97.16
56330;BME280;42236;48.058;10.632;2022-09-28T08:51:46;92993.00;;;9.61;96.98
56330;BME280;42236;48.058;10.632;2022-09-28T08:54:06;93007.81;;;9.37;98.61
56330;BME280;42236;48.058;10.632;2022-09-28T08:56:49;93004.19;;;9.15;95.59
56330;BME280;42236;48.058;10.632;2022-09-28T08:59:20;93004.19;;;8.74;92.91
56330;BME280;42236;48.058;10.632;2022-09-28T09:01:50;93006.19;;;8.43;94.62
56330;BME280;42236;48.058;10.632;2022-09-28T09:04:17;92997.91;;;8.29;96.56
56330;BME280;42236;48.058;10.632;2022-09-28T09:09:44;93020.75;;;8.16;100.00
56330;BME280;42236;48.058;10.632;2022-09-28T09:20:57;93025.78;;;8.47;100.00
56330;BME280;42236;48.058;10.632;2022-09-28T09:25:50;93034.16;;;8.42;99.91
56330;BME280;42236;48.058;10.632;2022-09-28T09:28:55;93046.06;;;8.41;100.00
56330;BME280;42236;48.058;10.632;2022-09-28T09:39:30;93047.69;;;8.49;100.00
56330;BME280;42236;48.058;10.632;2022-09-28T09:42:06;93054.25;;;8.52;100.00
56330;BME280;42236;48.058;10.632;2022-09-28T09:47:10;93060.69;;;8.44;100.00
56330;BME280;42236;48.058;10.632;2022-09-28T09:52:13;93065.03;;;8.25;100.00
56330;BME280;42236;48.058;10.632;2022-09-28T09:54:54;93057.19;;;8.13;100.00
56330;BME280;42236;48.058;10.632;2022-09-28T09:57:26;93070.16;;;8.07;100.00
56330;BME280;42236;48.058;10.632;2022-09-28T09:59:54;93076.66;;;8.06;100.00
56330;BME280;42236;48.058;10.632;2022-09-28T10:02:24;93080.84;;;8.04;100.00
56330;BME280;42236;48.058;10.632;2022-09-28T10:04:56;93082.31;;;7.98;100.00
56330;BME280;42236;48.058;10.632;2022-09-28T10:07:52;93089.19;;;7.95;100.00
56330;BME280;42236;48.058;10.632;2022-09-28T10:10:24;93094.94;;;7.97;100.00
56330;BME280;42236;48.058;10.632;2022-09-28T10:12:50;93092.16;;;7.90;100.00
56330;BME280;42236;48.058;10.632;2022-09-28T10:15:23;93092.97;;;7.94;100.00
56330;BME280;42236;48.058;10.632;2022-09-28T10:17:50;93096.91;;;8.00;100.00
56330;BME280;42236;48.058;10.632;2022-09-28T10:20:16;93101.97;;;8.05;100.00
56330;BME280;42236;48.058;10.632;2022-09-28T10:22:42;93092.44;;;8.11;100.00
56330;BME280;42236;48.058;10.632;2022-09-28T10:25:08;93086.41;;;8.18;100.00
56330;BME280;42236;48.058;10.632;2022-09-28T10:27:38;93094.44;;;8.15;100.00
56330;BME280;42236;48.058;10.632;2022-09-28T10:30:17;93072.56;;;8.16;100.00
56330;BME280;42236;48.058;10.632;2022-09-28T10:32:45;93072.72;;;8.27;100.00
56330;BME280;42236;48.058;10.632;2022-09-28T10:38:00;93064.06;;;8.71;100.00
56330;BME280;42236;48.058;10.632;2022-09-28T10:40:44;93073.41;;;8.84;100.00
56330;BME280;42236;48.058;10.632;2022-09-28T10:45:49;93073.56;;;8.95;99.73
56330;BME280;42236;48.058;10.632;2022-09-28T10:48:23;93088.91;;;8.94;99.57
56330;BME280;42236;48.058;10.632;2022-09-28T10:51:03;93086.75;;;9.07;100.00
56330;BME280;42236;48.058;10.632;2022-09-28T10:53:30;93082.25;;;9.18;99.22
56330;BME280;42236;48.058;10.632;2022-09-28T10:56:20;93087.31;;;9.27;99.96
56330;BME280;42236;48.058;10.632;2022-09-28T10:58:46;93091.63;;;9.35;100.00
56330;BME280;42236;48.058;10.632;2022-09-28T11:01:21;93093.28;;;9.47;100.00
56330;BME280;42236;48.058;10.632;2022-09-28T11:03:55;93098.75;;;9.58;99.64
56330;BME280;42236;48.058;10.632;2022-09-28T11:06:40;93098.84;;;9.69;98.53
56330;BME280;42236;48.058;10.632;2022-09-28T11:09:23;93085.81;;;9.74;98.22
56330;BME280;42236;48.058;10.632;2022-09-28T11:11:50;93082.38;;;9.77;98.11
56330;BME280;42236;48.058;10.632;2022-09-28T11:14:39;93078.25;;;9.91;98.87
56330;BME280;42236;48.058;10.632;2022-09-28T11:19:57;93073.34;;;10.07;98.48
56330;BME280;42236;48.058;10.632;2022-09-28T11:22:26;93082.63;;;10.13;97.32
56330;BME280;42236;48.058;10.632;2022-09-28T11:25:21;93089.53;;;10.14;97.03
56330;BME280;42236;48.058;10.632;2022-09-28T11:30:23;93103.38;;;10.09;96.13
56330;BME280;42236;48.058;10.632;2022-09-28T11:32:49;93093.72;;;10.04;96.62
56330;BME280;42236;48.058;10.632;2022-09-28T11:35:19;93099.09;;;10.04;96.57
56330;BME280;42236;48.058;10.632;2022-09-28T11:40:43;93086.44;;;10.12;96.91
56330;BME280;42236;48.058;10.632;2022-09-28T11:43:50;93096.53;;;10.22;96.88
56330;BME280;42236;48.058;10.632;2022-09-28T11:46:10;93086.94;;;10.25;96.25
56330;BME280;42236;48.058;10.632;2022-09-28T11:48:43;93080.78;;;10.24;96.50
56330;BME280;42236;48.058;10.632;2022-09-28T11:51:23;93091.53;;;10.21;95.86
56330;BME280;42236;48.058;10.632;2022-09-28T11:53:54;93102.31;;;10.21;95.68
56330;BME280;42236;48.058;10.632;2022-09-28T11:56:28;93102.25;;;10.14;96.13
56330;BME280;42236;48.058;10.632;2022-09-28T11:58:59;93105.31;;;10.12;96.16
56330;BME280;42236;48.058;10.632;2022-09-28T12:04:30;93101.50;;;10.13;96.03
56330;BME280;42236;48.058;10.632;2022-09-28T12:07:17;93108.84;;;10.23;96.47
56330;BME280;42236;48.058;10.632;2022-09-28T12:09:56;93113.84;;;10.21;95.57
56330;BME280;42236;48.058;10.632;2022-09-28T12:12:29;93113.06;;;10.17;95.63
56330;BME280;42236;48.058;10.632;2022-09-28T12:15:00;93109.53;;;10.10;95.27
56330;BME280;42236;48.058;10.632;2022-09-28T12:17:42;93113.34;;;10.05;95.89
56330;BME280;42236;48.058;10.632;2022-09-28T12:20:20;93112.13;;;9.95;95.97
56330;BME280;42236;48.058;10.632;2022-09-28T12:25:24;93131.59;;;9.33;95.38
56330;BME280;42236;48.058;10.632;2022-09-28T12:28:05;93128.75;;;8.85;95.39
56330;BME280;42236;48.058;10.632;2022-09-28T12:30:35;93126.03;;;8.51;96.13
56330;BME280;42236;48.058;10.632;2022-09-28T12:33:07;93130.78;;;8.35;96.99
56330;BME280;42236;48.058;10.632;2022-09-28T12:46:32;93139.13;;;8.00;99.02
56330;BME280;42236;48.058;10.632;2022-09-28T12:49:38;93133.25;;;7.94;99.55
56330;BME280;42236;48.058;10.632;2022-09-28T12:52:28;93124.34;;;7.90;99.70
56330;BME280;42236;48.058;10.632;2022-09-28T12:55:28;93123.84;;;7.81;99.50
56330;BME280;42236;48.058;10.632;2022-09-28T13:03:56;93111.03;;;7.70;100.00
56330;BME280;42236;48.058;10.632;2022-09-28T13:06:47;93109.59;;;7.77;100.00
56330;BME280;42236;48.058;10.632;2022-09-28T13:09:22;93117.00;;;7.83;100.00
56330;BME280;42236;48.058;10.632;2022-09-28T13:12:13;93121.97;;;7.85;99.97
56330;BME280;42236;48.058;10.632;2022-09-28T13:22:54;93136.13;;;8.05;99.85
56330;BME280;42236;48.058;10.632;2022-09-28T13:25:27;93136.94;;;8.09;99.15
56330;BME280;42236;48.058;10.632;2022-09-28T13:28:10;93137.00;;;8.12;98.78
56330;BME280;42236;48.058;10.632;2022-09-28T13:30:41;93127.78;;;8.13;98.12
56330;BME280;42236;48.058;10.632;2022-09-28T13:33:17;93134.72;;;8.15;98.58
56330;BME280;42236;48.058;10.632;2022-09-28T13:35:44;93138.19;;;8.15;98.72
56330;BME280;42236;48.058;10.632;2022-09-28T13:43:34;93139.78;;;8.20;99.27
56330;BME280;42236;48.058;10.632;2022-09-28T13:46:20;93142.09;;;8.21;99.23
56330;BME280;42236;48.058;10.632;2022-09-28T13:52:05;93121.84;;;8.27;99.67
56330;BME280;42236;48.058;10.632;2022-09-28T13:57:16;93121.09;;;8.27;98.75
56330;BME280;42236;48.058;10.632;2022-09-28T13:59:59;93125.00;;;8.33;98.84
56330;BME280;42236;48.058;10.632;2022-09-28T14:04:55;93133.88;;;8.37;99.22
56330;BME280;42236;48.058;10.632;2022-09-28T14:12:48;93136.47;;;8.30;99.35
56330;BME280;42236;48.058;10.632;2022-09-28T14:18:10;93134.88;;;8.25;100.00
56330;BME280;42236;48.058;10.632;2022-09-28T14:20:45;93133.25;;;8.21;99.40
56330;BME280;42236;48.058;10.632;2022-09-28T14:23:30;93134.75;;;8.18;99.71
56330;BME280;42236;48.058;10.632;2022-09-28T14:31:52;93142.06;;;8.18;99.82
56330;BME280;42236;48.058;10.632;2022-09-28T14:34:45;93144.84;;;8.25;100.00
56330;BME280;42236;48.058;10.632;2022-09-28T14:43:24;93144.84;;;8.51;98.28
56330;BME280;42236;48.058;10.632;2022-09-28T14:45:55;93137.88;;;8.47;97.62
56330;BME280;42236;48.058;10.632;2022-09-28T14:48:46;93138.97;;;8.42;97.75
56330;BME280;42236;48.058;10.632;2022-09-28T14:53:53;93131.13;;;8.33;97.75
56330;BME280;42236;48.058;10.632;2022-09-28T14:56:20;93138.69;;;8.24;97.03
56330;BME280;42236;48.058;10.632;2022-09-28T14:58:52;93134.81;;;8.22;98.13
56330;BME280;42236;48.058;10.632;2022-09-28T15:01:20;93134.31;;;8.12;96.73
56330;BME280;42236;48.058;10.632;2022-09-28T15:03:50;93135.31;;;8.04;96.81
56330;BME280;42236;48.058;10.632;2022-09-28T15:06:17;93143.00;;;8.02;97.25
56330;BME280;42236;48.058;10.632;2022-09-28T15:08:44;93143.69;;;7.99;97.78
56330;BME280;42236;48.058;10.632;2022-09-28T15:11:14;93155.94;;;7.97;97.48
56330;BME280;42236;48.058;10.632;2022-09-28T15:13:50;93152.06;;;7.94;97.65
56330;BME280;42236;48.058;10.632;2022-09-28T15:16:31;93147.81;;;7.93;97.74
56330;BME280;42236;48.058;10.632;2022-09-28T15:21:47;93154.63;;;7.87;97.69
56330;BME280;42236;48.058;10.632;2022-09-28T15:24:32;93160.41;;;7.89;98.13
56330;BME280;42236;48.058;10.632;2022-09-28T15:27:00;93154.63;;;7.87;97.40
56330;BME280;42236;48.058;10.632;2022-09-28T15:29:26;93161.56;;;7.88;97.41
56330;BME280;42236;48.058;10.632;2022-09-28T15:31:55;93167.63;;;7.85;97.57
56330;BME280;42236;48.058;10.632;2022-09-28T15:34:30;93168.78;;;7.84;98.03
56330;BME280;42236;48.058;10.632;2022-09-28T15:37:17;93175.69;;;7.85;97.87